sensor_id;sensor_type;location;lat;lon;timestamp;P1;durP1;ratioP1;P2;durP2;ratioP2
77099;SDS011;66602;48.922;2.414;2023-04-08T00:00:55;7.95;;;6.40;;
77099;SDS011;66602;48.922;2.414;2023-04-08T00:03:20;6.85;;;6.35;;
77099;SDS011;66602;48.922;2.414;2023-04-08T00:05:46;6.25;;;5.55;;
77099;SDS011;66602;48.922;2.414;2023-04-08T00:08:11;6.10;;;5.70;;
77099;SDS011;66602;48.922;2.414;2023-04-08T00:10:37;10.65;;;5.88;;
77099;SDS011;66602;48.922;2.414;2023-04-08T00:13:03;7.45;;;5.53;;
77099;SDS011;66602;48.922;2.414;2023-04-08T00:15:28;9.50;;;5.88;;
77099;SDS011;66602;48.922;2.414;2023-04-08T00:17:54;6.50;;;6.00;;
77099;SDS011;66602;48.922;2.414;2023-04-08T00:20:21;12.90;;;5.43;;
77099;SDS011;66602;48.922;2.414;2023-04-08T00:22:47;8.25;;;4.93;;
77099;SDS011;66602;48.922;2.414;2023-04-08T00:25:13;7.88;;;5.00;;
77099;SDS011;66602;48.922;2.414;2023-04-08T00:27:38;5.82;;;5.18;;
77099;SDS011;66602;48.922;2.414;2023-04-08T00:30:04;4.95;;;4.65;;
77099;SDS011;66602;48.922;2.414;2023-04-08T00:32:30;6.13;;;5.53;;
77099;SDS011;66602;48.922;2.414;2023-04-08T00:34:55;5.53;;;5.10;;
77099;SDS011;66602;48.922;2.414;2023-04-08T00:37:21;5.70;;;4.82;;
77099;SDS011;66602;48.922;2.414;2023-04-08T00:39:47;5.38;;;4.85;;
77099;SDS011;66602;48.922;2.414;2023-04-08T00:42:12;7.30;;;5.07;;
77099;SDS011;66602;48.922;2.414;2023-04-08T00:44:38;9.60;;;5.85;;
77099;SDS011;66602;48.922;2.414;2023-04-08T00:47:03;6.13;;;5.47;;
77099;SDS011;66602;48.922;2.414;2023-04-08T00:49:32;8.75;;;5.88;;
77099;SDS011;66602;48.922;2.414;2023-04-08T00:51:58;12.10;;;6.55;;
77099;SDS011;66602;48.922;2.414;2023-04-08T00:54:24;7.30;;;6.60;;
77099;SDS011;66602;48.922;2.414;2023-04-08T00:56:50;13.85;;;6.75;;
77099;SDS011;66602;48.922;2.414;2023-04-08T00:59:16;7.18;;;5.28;;
77099;SDS011;66602;48.922;2.414;2023-04-08T01:01:43;9.70;;;5.72;;
77099;SDS011;66602;48.922;2.414;2023-04-08T01:04:28;6.15;;;5.60;;
77099;SDS011;66602;48.922;2.414;2023-04-08T01:07:19;6.95;;;6.30;;
77099;SDS011;66602;48.922;2.414;2023-04-08T01:09:54;6.75;;;5.78;;
77099;SDS011;66602;48.922;2.414;2023-04-08T01:12:26;7.07;;;6.05;;
77099;SDS011;66602;48.922;2.414;2023-04-08T01:15:04;7.78;;;6.18;;
77099;SDS011;66602;48.922;2.414;2023-04-08T01:17:32;10.35;;;5.57;;
77099;SDS011;66602;48.922;2.414;2023-04-08T01:19:59;7.85;;;6.85;;
77099;SDS011;66602;48.922;2.414;2023-04-08T01:25:20;7.88;;;7.18;;
77099;SDS011;66602;48.922;2.414;2023-04-08T01:27:48;8.18;;;7.35;;
77099;SDS011;66602;48.922;2.414;2023-04-08T01:30:14;13.23;;;7.97;;
77099;SDS011;66602;48.922;2.414;2023-04-08T01:32:43;10.60;;;7.75;;
77099;SDS011;66602;48.922;2.414;2023-04-08T01:35:09;9.52;;;6.57;;
77099;SDS011;66602;48.922;2.414;2023-04-08T01:37:36;11.15;;;7.03;;
77099;SDS011;66602;48.922;2.414;2023-04-08T01:40:03;10.48;;;7.55;;
77099;SDS011;66602;48.922;2.414;2023-04-08T01:42:31;8.02;;;7.20;;
77099;SDS011;66602;48.922;2.414;2023-04-08T01:44:58;8.23;;;7.05;;
77099;SDS011;66602;48.922;2.414;2023-04-08T01:47:24;15.35;;;7.32;;
77099;SDS011;66602;48.922;2.414;2023-04-08T01:49:51;13.32;;;7.25;;
77099;SDS011;66602;48.922;2.414;2023-04-08T01:52:17;7.88;;;7.18;;
77099;SDS011;66602;48.922;2.414;2023-04-08T01:54:44;8.52;;;7.05;;
77099;SDS011;66602;48.922;2.414;2023-04-08T01:57:11;8.50;;;7.57;;
77099;SDS011;66602;48.922;2.414;2023-04-08T01:59:39;7.75;;;7.00;;
77099;SDS011;66602;48.922;2.414;2023-04-08T02:02:06;14.85;;;7.10;;
77099;SDS011;66602;48.922;2.414;2023-04-08T02:04:33;11.48;;;6.90;;
77099;SDS011;66602;48.922;2.414;2023-04-08T02:07:00;11.93;;;7.68;;
77099;SDS011;66602;48.922;2.414;2023-04-08T02:09:26;13.90;;;7.53;;
77099;SDS011;66602;48.922;2.414;2023-04-08T02:11:52;6.53;;;6.03;;
77099;SDS011;66602;48.922;2.414;2023-04-08T02:14:17;18.55;;;7.35;;
77099;SDS011;66602;48.922;2.414;2023-04-08T02:16:51;13.07;;;8.13;;
77099;SDS011;66602;48.922;2.414;2023-04-08T02:19:33;7.45;;;6.28;;
77099;SDS011;66602;48.922;2.414;2023-04-08T02:22:07;11.85;;;7.10;;
77099;SDS011;66602;48.922;2.414;2023-04-08T02:24:38;9.82;;;6.45;;
77099;SDS011;66602;48.922;2.414;2023-04-08T02:27:04;8.02;;;7.28;;
77099;SDS011;66602;48.922;2.414;2023-04-08T02:29:32;12.38;;;8.35;;
77099;SDS011;66602;48.922;2.414;2023-04-08T02:32:00;9.43;;;7.38;;
77099;SDS011;66602;48.922;2.414;2023-04-08T02:34:28;16.67;;;8.57;;
77099;SDS011;66602;48.922;2.414;2023-04-08T02:36:54;17.13;;;8.13;;
77099;SDS011;66602;48.922;2.414;2023-04-08T02:39:20;8.45;;;7.05;;
77099;SDS011;66602;48.922;2.414;2023-04-08T02:41:45;10.70;;;7.53;;
77099;SDS011;66602;48.922;2.414;2023-04-08T02:44:11;14.63;;;8.38;;
77099;SDS011;66602;48.922;2.414;2023-04-08T02:46:36;15.60;;;9.27;;
77099;SDS011;66602;48.922;2.414;2023-04-08T02:49:02;13.07;;;8.02;;
77099;SDS011;66602;48.922;2.414;2023-04-08T02:51:27;12.43;;;9.05;;
77099;SDS011;66602;48.922;2.414;2023-04-08T02:53:53;16.70;;;8.65;;
77099;SDS011;66602;48.922;2.414;2023-04-08T02:56:19;15.60;;;8.52;;
77099;SDS011;66602;48.922;2.414;2023-04-08T02:58:45;8.88;;;7.78;;
77099;SDS011;66602;48.922;2.414;2023-04-08T03:01:11;14.88;;;8.48;;
77099;SDS011;66602;48.922;2.414;2023-04-08T03:03:36;19.30;;;8.93;;
77099;SDS011;66602;48.922;2.414;2023-04-08T03:06:02;22.73;;;9.48;;
77099;SDS011;66602;48.922;2.414;2023-04-08T03:08:27;14.82;;;9.48;;
77099;SDS011;66602;48.922;2.414;2023-04-08T03:10:53;9.27;;;8.35;;
77099;SDS011;66602;48.922;2.414;2023-04-08T03:13:18;12.93;;;8.18;;
77099;SDS011;66602;48.922;2.414;2023-04-08T03:15:44;17.23;;;8.75;;
77099;SDS011;66602;48.922;2.414;2023-04-08T03:18:09;21.40;;;9.20;;
77099;SDS011;66602;48.922;2.414;2023-04-08T03:20:35;14.05;;;9.18;;
77099;SDS011;66602;48.922;2.414;2023-04-08T03:23:01;21.85;;;9.68;;
77099;SDS011;66602;48.922;2.414;2023-04-08T03:25:26;14.25;;;9.65;;
77099;SDS011;66602;48.922;2.414;2023-04-08T03:27:53;15.13;;;8.95;;
77099;SDS011;66602;48.922;2.414;2023-04-08T03:30:22;13.13;;;9.23;;
77099;SDS011;66602;48.922;2.414;2023-04-08T03:32:47;9.82;;;8.32;;
77099;SDS011;66602;48.922;2.414;2023-04-08T03:35:13;11.75;;;8.20;;
77099;SDS011;66602;48.922;2.414;2023-04-08T03:37:38;13.85;;;8.35;;
77099;SDS011;66602;48.922;2.414;2023-04-08T03:40:04;19.85;;;9.60;;
77099;SDS011;66602;48.922;2.414;2023-04-08T03:42:30;15.55;;;9.85;;
77099;SDS011;66602;48.922;2.414;2023-04-08T03:44:56;19.85;;;9.52;;
77099;SDS011;66602;48.922;2.414;2023-04-08T03:47:22;22.77;;;10.77;;
77099;SDS011;66602;48.922;2.414;2023-04-08T03:49:48;20.27;;;9.77;;
77099;SDS011;66602;48.922;2.414;2023-04-08T03:52:13;15.35;;;10.00;;
77099;SDS011;66602;48.922;2.414;2023-04-08T03:54:38;17.50;;;8.65;;
77099;SDS011;66602;48.922;2.414;2023-04-08T03:57:04;12.55;;;8.77;;
77099;SDS011;66602;48.922;2.414;2023-04-08T03:59:29;10.57;;;7.95;;
77099;SDS011;66602;48.922;2.414;2023-04-08T04:01:55;11.57;;;9.43;;
77099;SDS011;66602;48.922;2.414;2023-04-08T04:04:21;11.50;;;7.85;;
77099;SDS011;66602;48.922;2.414;2023-04-08T04:06:47;9.90;;;8.93;;
77099;SDS011;66602;48.922;2.414;2023-04-08T04:09:12;18.58;;;9.48;;
77099;SDS011;66602;48.922;2.414;2023-04-08T04:11:39;17.42;;;9.45;;
77099;SDS011;66602;48.922;2.414;2023-04-08T04:14:04;14.93;;;9.88;;
77099;SDS011;66602;48.922;2.414;2023-04-08T04:16:30;15.75;;;8.82;;
77099;SDS011;66602;48.922;2.414;2023-04-08T04:18:55;8.65;;;7.88;;
77099;SDS011;66602;48.922;2.414;2023-04-08T04:21:21;17.13;;;10.30;;
77099;SDS011;66602;48.922;2.414;2023-04-08T04:23:46;11.77;;;9.02;;
77099;SDS011;66602;48.922;2.414;2023-04-08T04:26:11;14.15;;;9.10;;
77099;SDS011;66602;48.922;2.414;2023-04-08T04:28:37;13.73;;;9.75;;
77099;SDS011;66602;48.922;2.414;2023-04-08T04:31:03;12.82;;;9.30;;
77099;SDS011;66602;48.922;2.414;2023-04-08T04:33:29;9.85;;;8.48;;
77099;SDS011;66602;48.922;2.414;2023-04-08T04:35:55;11.52;;;8.65;;
77099;SDS011;66602;48.922;2.414;2023-04-08T04:38:20;15.73;;;10.65;;
77099;SDS011;66602;48.922;2.414;2023-04-08T04:40:46;12.52;;;8.63;;
77099;SDS011;66602;48.922;2.414;2023-04-08T04:43:11;10.52;;;9.23;;
77099;SDS011;66602;48.922;2.414;2023-04-08T04:45:37;16.85;;;10.00;;
77099;SDS011;66602;48.922;2.414;2023-04-08T04:48:02;21.10;;;11.10;;
77099;SDS011;66602;48.922;2.414;2023-04-08T04:50:28;20.75;;;10.38;;
77099;SDS011;66602;48.922;2.414;2023-04-08T04:52:53;20.95;;;11.40;;
77099;SDS011;66602;48.922;2.414;2023-04-08T04:55:19;25.00;;;11.32;;
77099;SDS011;66602;48.922;2.414;2023-04-08T04:57:46;13.32;;;10.13;;
77099;SDS011;66602;48.922;2.414;2023-04-08T05:00:15;23.85;;;11.50;;
77099;SDS011;66602;48.922;2.414;2023-04-08T05:02:41;20.98;;;10.88;;
77099;SDS011;66602;48.922;2.414;2023-04-08T05:05:06;27.33;;;11.05;;
77099;SDS011;66602;48.922;2.414;2023-04-08T05:07:35;15.43;;;10.85;;
77099;SDS011;66602;48.922;2.414;2023-04-08T05:10:02;16.55;;;10.40;;
77099;SDS011;66602;48.922;2.414;2023-04-08T05:12:28;14.90;;;11.52;;
77099;SDS011;66602;48.922;2.414;2023-04-08T05:14:54;21.75;;;12.07;;
77099;SDS011;66602;48.922;2.414;2023-04-08T05:17:19;26.67;;;11.55;;
77099;SDS011;66602;48.922;2.414;2023-04-08T05:19:45;17.33;;;10.90;;
77099;SDS011;66602;48.922;2.414;2023-04-08T05:22:10;28.75;;;11.90;;
77099;SDS011;66602;48.922;2.414;2023-04-08T05:24:35;25.33;;;11.32;;
77099;SDS011;66602;48.922;2.414;2023-04-08T05:27:01;20.27;;;11.63;;
77099;SDS011;66602;48.922;2.414;2023-04-08T05:29:27;15.13;;;11.05;;
77099;SDS011;66602;48.922;2.414;2023-04-08T05:31:52;12.55;;;11.23;;
77099;SDS011;66602;48.922;2.414;2023-04-08T05:34:18;15.80;;;10.38;;
77099;SDS011;66602;48.922;2.414;2023-04-08T05:36:47;19.27;;;11.27;;
77099;SDS011;66602;48.922;2.414;2023-04-08T05:39:16;12.30;;;10.25;;
77099;SDS011;66602;48.922;2.414;2023-04-08T05:41:42;16.70;;;10.32;;
77099;SDS011;66602;48.922;2.414;2023-04-08T05:44:08;14.57;;;11.35;;
77099;SDS011;66602;48.922;2.414;2023-04-08T05:46:34;18.13;;;11.77;;
77099;SDS011;66602;48.922;2.414;2023-04-08T05:48:59;19.83;;;12.27;;
77099;SDS011;66602;48.922;2.414;2023-04-08T05:51:25;19.70;;;11.98;;
77099;SDS011;66602;48.922;2.414;2023-04-08T05:53:50;14.63;;;11.23;;
77099;SDS011;66602;48.922;2.414;2023-04-08T05:56:16;19.65;;;11.73;;
77099;SDS011;66602;48.922;2.414;2023-04-08T05:58:41;14.38;;;11.35;;
77099;SDS011;66602;48.922;2.414;2023-04-08T06:01:07;18.05;;;10.70;;
77099;SDS011;66602;48.922;2.414;2023-04-08T06:03:33;13.35;;;9.85;;
77099;SDS011;66602;48.922;2.414;2023-04-08T06:05:58;22.25;;;11.43;;
77099;SDS011;66602;48.922;2.414;2023-04-08T06:08:24;20.88;;;12.68;;
77099;SDS011;66602;48.922;2.414;2023-04-08T06:10:50;11.65;;;10.48;;
77099;SDS011;66602;48.922;2.414;2023-04-08T06:13:16;16.02;;;10.60;;
77099;SDS011;66602;48.922;2.414;2023-04-08T06:15:42;15.45;;;10.48;;
77099;SDS011;66602;48.922;2.414;2023-04-08T06:18:07;16.92;;;10.13;;
77099;SDS011;66602;48.922;2.414;2023-04-08T06:20:34;15.48;;;11.13;;
77099;SDS011;66602;48.922;2.414;2023-04-08T06:22:59;21.73;;;10.57;;
77099;SDS011;66602;48.922;2.414;2023-04-08T06:25:25;14.05;;;10.00;;
77099;SDS011;66602;48.922;2.414;2023-04-08T06:27:51;15.40;;;9.73;;
77099;SDS011;66602;48.922;2.414;2023-04-08T06:30:17;14.75;;;10.60;;
77099;SDS011;66602;48.922;2.414;2023-04-08T06:32:42;13.32;;;10.63;;
77099;SDS011;66602;48.922;2.414;2023-04-08T06:35:11;21.50;;;10.82;;
77099;SDS011;66602;48.922;2.414;2023-04-08T06:37:36;15.25;;;10.02;;
77099;SDS011;66602;48.922;2.414;2023-04-08T06:40:03;14.63;;;9.18;;
77099;SDS011;66602;48.922;2.414;2023-04-08T06:42:29;14.68;;;9.73;;
77099;SDS011;66602;48.922;2.414;2023-04-08T06:44:55;15.73;;;9.98;;
77099;SDS011;66602;48.922;2.414;2023-04-08T06:47:22;22.58;;;10.10;;
77099;SDS011;66602;48.922;2.414;2023-04-08T06:49:47;14.35;;;9.68;;
77099;SDS011;66602;48.922;2.414;2023-04-08T06:52:13;10.40;;;9.38;;
77099;SDS011;66602;48.922;2.414;2023-04-08T06:54:38;18.58;;;9.75;;
77099;SDS011;66602;48.922;2.414;2023-04-08T06:57:05;10.20;;;9.25;;
77099;SDS011;66602;48.922;2.414;2023-04-08T06:59:31;17.65;;;10.10;;
77099;SDS011;66602;48.922;2.414;2023-04-08T07:01:56;12.13;;;9.68;;
77099;SDS011;66602;48.922;2.414;2023-04-08T07:04:22;20.45;;;10.20;;
77099;SDS011;66602;48.922;2.414;2023-04-08T07:06:47;15.32;;;9.70;;
77099;SDS011;66602;48.922;2.414;2023-04-08T07:09:13;23.08;;;10.43;;
77099;SDS011;66602;48.922;2.414;2023-04-08T07:11:38;29.75;;;11.77;;
77099;SDS011;66602;48.922;2.414;2023-04-08T07:14:04;8.65;;;7.80;;
77099;SDS011;66602;48.922;2.414;2023-04-08T07:16:29;13.38;;;7.55;;
77099;SDS011;66602;48.922;2.414;2023-04-08T07:18:55;17.38;;;6.50;;
77099;SDS011;66602;48.922;2.414;2023-04-08T07:21:22;10.93;;;6.32;;
77099;SDS011;66602;48.922;2.414;2023-04-08T07:23:47;7.13;;;6.28;;
77099;SDS011;66602;48.922;2.414;2023-04-08T07:26:13;8.43;;;5.32;;
77099;SDS011;66602;48.922;2.414;2023-04-08T07:28:38;7.85;;;4.90;;
77099;SDS011;66602;48.922;2.414;2023-04-08T07:31:14;8.63;;;5.78;;
77099;SDS011;66602;48.922;2.414;2023-04-08T07:33:41;7.50;;;6.57;;
77099;SDS011;66602;48.922;2.414;2023-04-08T07:36:11;6.55;;;5.53;;
77099;SDS011;66602;48.922;2.414;2023-04-08T07:38:39;11.00;;;5.80;;
77099;SDS011;66602;48.922;2.414;2023-04-08T07:41:05;5.97;;;5.53;;
77099;SDS011;66602;48.922;2.414;2023-04-08T07:43:31;5.72;;;5.18;;
77099;SDS011;66602;48.922;2.414;2023-04-08T07:46:01;5.60;;;5.20;;
77099;SDS011;66602;48.922;2.414;2023-04-08T07:48:30;7.53;;;6.00;;
77099;SDS011;66602;48.922;2.414;2023-04-08T07:50:56;8.40;;;5.65;;
77099;SDS011;66602;48.922;2.414;2023-04-08T07:53:22;7.38;;;5.85;;
77099;SDS011;66602;48.922;2.414;2023-04-08T07:55:51;6.63;;;6.03;;
77099;SDS011;66602;48.922;2.414;2023-04-08T07:58:17;6.60;;;5.90;;
77099;SDS011;66602;48.922;2.414;2023-04-08T08:00:43;7.22;;;5.25;;
77099;SDS011;66602;48.922;2.414;2023-04-08T08:03:08;6.32;;;5.75;;
77099;SDS011;66602;48.922;2.414;2023-04-08T08:05:34;9.35;;;6.63;;
77099;SDS011;66602;48.922;2.414;2023-04-08T08:08:01;7.75;;;5.80;;
77099;SDS011;66602;48.922;2.414;2023-04-08T08:10:27;6.25;;;5.75;;
77099;SDS011;66602;48.922;2.414;2023-04-08T08:12:52;8.63;;;5.50;;
77099;SDS011;66602;48.922;2.414;2023-04-08T08:15:18;8.07;;;5.68;;
77099;SDS011;66602;48.922;2.414;2023-04-08T08:17:43;7.82;;;6.20;;
77099;SDS011;66602;48.922;2.414;2023-04-08T08:20:09;13.10;;;6.28;;
77099;SDS011;66602;48.922;2.414;2023-04-08T08:22:35;6.63;;;6.05;;
77099;SDS011;66602;48.922;2.414;2023-04-08T08:25:00;6.30;;;5.70;;
77099;SDS011;66602;48.922;2.414;2023-04-08T08:27:26;6.18;;;5.15;;
77099;SDS011;66602;48.922;2.414;2023-04-08T08:29:51;7.43;;;6.13;;
77099;SDS011;66602;48.922;2.414;2023-04-08T08:32:17;6.45;;;6.00;;
77099;SDS011;66602;48.922;2.414;2023-04-08T08:34:43;6.40;;;5.68;;
77099;SDS011;66602;48.922;2.414;2023-04-08T08:37:08;6.30;;;5.38;;
77099;SDS011;66602;48.922;2.414;2023-04-08T08:39:34;6.63;;;5.40;;
77099;SDS011;66602;48.922;2.414;2023-04-08T08:42:00;7.38;;;6.18;;
77099;SDS011;66602;48.922;2.414;2023-04-08T08:44:25;5.93;;;5.50;;
77099;SDS011;66602;48.922;2.414;2023-04-08T08:46:51;8.40;;;5.80;;
77099;SDS011;66602;48.922;2.414;2023-04-08T08:49:17;5.80;;;5.30;;
77099;SDS011;66602;48.922;2.414;2023-04-08T08:51:44;7.00;;;6.50;;
77099;SDS011;66602;48.922;2.414;2023-04-08T08:54:11;5.45;;;5.15;;
77099;SDS011;66602;48.922;2.414;2023-04-08T08:56:36;5.60;;;5.20;;
77099;SDS011;66602;48.922;2.414;2023-04-08T08:59:02;4.95;;;4.43;;
77099;SDS011;66602;48.922;2.414;2023-04-08T09:04:08;6.05;;;5.60;;
77099;SDS011;66602;48.922;2.414;2023-04-08T09:06:44;5.50;;;4.80;;
77099;SDS011;66602;48.922;2.414;2023-04-08T09:09:15;5.15;;;4.75;;
77099;SDS011;66602;48.922;2.414;2023-04-08T09:11:45;5.38;;;4.97;;
77099;SDS011;66602;48.922;2.414;2023-04-08T09:14:21;5.93;;;4.80;;
77099;SDS011;66602;48.922;2.414;2023-04-08T09:16:48;5.47;;;5.07;;
77099;SDS011;66602;48.922;2.414;2023-04-08T09:19:14;5.07;;;4.80;;
77099;SDS011;66602;48.922;2.414;2023-04-08T09:21:40;5.50;;;5.10;;
77099;SDS011;66602;48.922;2.414;2023-04-08T09:24:07;5.18;;;4.78;;
77099;SDS011;66602;48.922;2.414;2023-04-08T09:26:33;5.30;;;4.72;;
77099;SDS011;66602;48.922;2.414;2023-04-08T09:29:00;4.85;;;4.53;;
77099;SDS011;66602;48.922;2.414;2023-04-08T09:31:27;6.40;;;5.80;;
77099;SDS011;66602;48.922;2.414;2023-04-08T09:33:54;6.70;;;6.18;;
77099;SDS011;66602;48.922;2.414;2023-04-08T09:36:24;6.93;;;6.07;;
77099;SDS011;66602;48.922;2.414;2023-04-08T09:38:53;12.23;;;11.05;;
77099;SDS011;66602;48.922;2.414;2023-04-08T09:41:20;13.20;;;11.90;;
77099;SDS011;66602;48.922;2.414;2023-04-08T09:43:50;6.10;;;5.25;;
77099;SDS011;66602;48.922;2.414;2023-04-08T09:46:26;6.90;;;6.25;;
77099;SDS011;66602;48.922;2.414;2023-04-08T09:49:06;7.13;;;6.53;;
77099;SDS011;66602;48.922;2.414;2023-04-08T09:51:41;8.80;;;8.30;;
77099;SDS011;66602;48.922;2.414;2023-04-08T09:54:11;7.18;;;6.15;;
77099;SDS011;66602;48.922;2.414;2023-04-08T09:56:40;8.57;;;7.82;;
77099;SDS011;66602;48.922;2.414;2023-04-08T09:59:14;12.20;;;11.25;;
77099;SDS011;66602;48.922;2.414;2023-04-08T10:01:49;5.32;;;4.55;;
77099;SDS011;66602;48.922;2.414;2023-04-08T10:04:19;8.95;;;8.20;;
77099;SDS011;66602;48.922;2.414;2023-04-08T10:06:49;6.93;;;6.32;;
77099;SDS011;66602;48.922;2.414;2023-04-08T10:09:22;5.55;;;5.15;;
77099;SDS011;66602;48.922;2.414;2023-04-08T10:11:48;5.57;;;4.70;;
77099;SDS011;66602;48.922;2.414;2023-04-08T10:14:14;5.22;;;4.80;;
77099;SDS011;66602;48.922;2.414;2023-04-08T10:16:40;6.20;;;5.32;;
77099;SDS011;66602;48.922;2.414;2023-04-08T10:27:40;5.68;;;5.05;;
77099;SDS011;66602;48.922;2.414;2023-04-08T10:32:55;5.47;;;5.00;;
77099;SDS011;66602;48.922;2.414;2023-04-08T10:35:36;10.35;;;6.15;;
77099;SDS011;66602;48.922;2.414;2023-04-08T10:38:05;7.30;;;5.53;;
77099;SDS011;66602;48.922;2.414;2023-04-08T10:40:35;5.07;;;4.78;;
77099;SDS011;66602;48.922;2.414;2023-04-08T10:43:03;4.70;;;4.20;;
77099;SDS011;66602;48.922;2.414;2023-04-08T10:45:29;5.40;;;5.00;;
77099;SDS011;66602;48.922;2.414;2023-04-08T10:47:55;5.07;;;4.55;;
77099;SDS011;66602;48.922;2.414;2023-04-08T10:50:20;5.00;;;4.60;;
77099;SDS011;66602;48.922;2.414;2023-04-08T10:52:52;6.43;;;3.95;;
77099;SDS011;66602;48.922;2.414;2023-04-08T10:55:22;4.70;;;4.30;;
77099;SDS011;66602;48.922;2.414;2023-04-08T10:57:49;4.50;;;3.97;;
77099;SDS011;66602;48.922;2.414;2023-04-08T11:03:00;4.93;;;4.40;;
77099;SDS011;66602;48.922;2.414;2023-04-08T11:05:30;4.47;;;4.13;;
77099;SDS011;66602;48.922;2.414;2023-04-08T11:07:57;4.15;;;3.75;;
77099;SDS011;66602;48.922;2.414;2023-04-08T11:10:25;5.22;;;4.38;;
77099;SDS011;66602;48.922;2.414;2023-04-08T11:12:53;3.70;;;3.35;;
77099;SDS011;66602;48.922;2.414;2023-04-08T11:15:19;5.20;;;4.70;;
77099;SDS011;66602;48.922;2.414;2023-04-08T11:17:46;5.93;;;4.43;;
77099;SDS011;66602;48.922;2.414;2023-04-08T11:20:12;4.38;;;3.75;;
77099;SDS011;66602;48.922;2.414;2023-04-08T11:22:38;4.40;;;4.00;;
77099;SDS011;66602;48.922;2.414;2023-04-08T11:25:04;4.40;;;4.10;;
77099;SDS011;66602;48.922;2.414;2023-04-08T11:27:32;4.00;;;3.70;;
77099;SDS011;66602;48.922;2.414;2023-04-08T11:30:00;4.10;;;3.80;;
77099;SDS011;66602;48.922;2.414;2023-04-08T11:32:26;4.50;;;3.85;;
77099;SDS011;66602;48.922;2.414;2023-04-08T11:34:53;4.22;;;3.92;;
77099;SDS011;66602;48.922;2.414;2023-04-08T11:37:19;3.53;;;3.40;;
77099;SDS011;66602;48.922;2.414;2023-04-08T11:39:45;3.83;;;3.53;;
77099;SDS011;66602;48.922;2.414;2023-04-08T11:44:51;4.78;;;3.38;;
77099;SDS011;66602;48.922;2.414;2023-04-08T11:47:17;4.70;;;4.05;;
77099;SDS011;66602;48.922;2.414;2023-04-08T11:49:43;4.63;;;4.32;;
77099;SDS011;66602;48.922;2.414;2023-04-08T11:52:09;5.35;;;4.20;;
77099;SDS011;66602;48.922;2.414;2023-04-08T11:54:39;4.63;;;4.20;;
77099;SDS011;66602;48.922;2.414;2023-04-08T11:57:06;3.75;;;3.53;;
77099;SDS011;66602;48.922;2.414;2023-04-08T11:59:33;4.20;;;3.65;;
77099;SDS011;66602;48.922;2.414;2023-04-08T12:02:00;3.75;;;3.42;;
77099;SDS011;66602;48.922;2.414;2023-04-08T12:04:26;3.88;;;3.55;;
77099;SDS011;66602;48.922;2.414;2023-04-08T12:06:51;5.53;;;3.97;;
77099;SDS011;66602;48.922;2.414;2023-04-08T12:09:17;3.63;;;3.33;;
77099;SDS011;66602;48.922;2.414;2023-04-08T12:11:43;3.40;;;3.20;;
77099;SDS011;66602;48.922;2.414;2023-04-08T12:14:08;4.07;;;3.78;;
77099;SDS011;66602;48.922;2.414;2023-04-08T12:16:34;3.65;;;3.45;;
77099;SDS011;66602;48.922;2.414;2023-04-08T12:19:00;4.43;;;4.03;;
77099;SDS011;66602;48.922;2.414;2023-04-08T12:21:25;3.63;;;3.33;;
77099;SDS011;66602;48.922;2.414;2023-04-08T12:23:52;4.00;;;3.60;;
77099;SDS011;66602;48.922;2.414;2023-04-08T12:26:17;3.65;;;3.35;;
77099;SDS011;66602;48.922;2.414;2023-04-08T12:28:43;3.58;;;3.30;;
77099;SDS011;66602;48.922;2.414;2023-04-08T12:31:10;3.55;;;3.33;;
77099;SDS011;66602;48.922;2.414;2023-04-08T12:33:35;4.25;;;3.28;;
77099;SDS011;66602;48.922;2.414;2023-04-08T12:36:01;3.63;;;3.42;;
77099;SDS011;66602;48.922;2.414;2023-04-08T12:38:27;3.72;;;3.42;;
77099;SDS011;66602;48.922;2.414;2023-04-08T12:40:53;3.20;;;3.00;;
77099;SDS011;66602;48.922;2.414;2023-04-08T12:43:18;4.20;;;3.33;;
77099;SDS011;66602;48.922;2.414;2023-04-08T12:45:45;3.63;;;3.33;;
77099;SDS011;66602;48.922;2.414;2023-04-08T12:48:10;3.20;;;3.10;;
77099;SDS011;66602;48.922;2.414;2023-04-08T12:50:36;4.28;;;3.88;;
77099;SDS011;66602;48.922;2.414;2023-04-08T12:53:01;3.47;;;3.28;;
77099;SDS011;66602;48.922;2.414;2023-04-08T12:55:27;3.60;;;3.40;;
77099;SDS011;66602;48.922;2.414;2023-04-08T12:57:52;3.35;;;3.15;;
77099;SDS011;66602;48.922;2.414;2023-04-08T13:00:18;3.40;;;3.20;;
77099;SDS011;66602;48.922;2.414;2023-04-08T13:02:44;6.50;;;3.13;;
77099;SDS011;66602;48.922;2.414;2023-04-08T13:05:10;3.92;;;2.92;;
77099;SDS011;66602;48.922;2.414;2023-04-08T13:07:35;3.58;;;3.25;;
77099;SDS011;66602;48.922;2.414;2023-04-08T13:10:01;3.35;;;3.13;;
77099;SDS011;66602;48.922;2.414;2023-04-08T13:12:27;3.33;;;3.10;;
77099;SDS011;66602;48.922;2.414;2023-04-08T13:14:54;3.85;;;3.65;;
77099;SDS011;66602;48.922;2.414;2023-04-08T13:17:19;3.47;;;3.17;;
77099;SDS011;66602;48.922;2.414;2023-04-08T13:19:45;4.82;;;3.10;;
77099;SDS011;66602;48.922;2.414;2023-04-08T13:22:12;3.47;;;3.17;;
77099;SDS011;66602;48.922;2.414;2023-04-08T13:24:38;3.25;;;3.03;;
77099;SDS011;66602;48.922;2.414;2023-04-08T13:27:04;2.85;;;2.65;;
77099;SDS011;66602;48.922;2.414;2023-04-08T13:29:29;2.53;;;2.40;;
77099;SDS011;66602;48.922;2.414;2023-04-08T13:31:55;3.15;;;2.95;;
77099;SDS011;66602;48.922;2.414;2023-04-08T13:34:20;2.92;;;2.72;;
77099;SDS011;66602;48.922;2.414;2023-04-08T13:36:46;3.50;;;3.20;;
77099;SDS011;66602;48.922;2.414;2023-04-08T13:39:11;3.42;;;3.17;;
77099;SDS011;66602;48.922;2.414;2023-04-08T13:41:37;3.78;;;3.40;;
77099;SDS011;66602;48.922;2.414;2023-04-08T13:44:02;5.30;;;4.93;;
77099;SDS011;66602;48.922;2.414;2023-04-08T13:46:28;3.30;;;3.00;;
77099;SDS011;66602;48.922;2.414;2023-04-08T13:48:53;4.13;;;3.55;;
77099;SDS011;66602;48.922;2.414;2023-04-08T13:51:19;3.45;;;3.15;;
77099;SDS011;66602;48.922;2.414;2023-04-08T13:53:45;4.22;;;2.60;;
77099;SDS011;66602;48.922;2.414;2023-04-08T13:56:11;3.17;;;2.70;;
77099;SDS011;66602;48.922;2.414;2023-04-08T13:58:36;4.13;;;2.85;;
77099;SDS011;66602;48.922;2.414;2023-04-08T14:01:02;3.10;;;2.90;;
77099;SDS011;66602;48.922;2.414;2023-04-08T14:03:27;3.67;;;3.38;;
77099;SDS011;66602;48.922;2.414;2023-04-08T14:05:53;3.38;;;3.08;;
77099;SDS011;66602;48.922;2.414;2023-04-08T14:08:19;3.17;;;2.55;;
77099;SDS011;66602;48.922;2.414;2023-04-08T14:10:49;4.28;;;2.83;;
77099;SDS011;66602;48.922;2.414;2023-04-08T14:13:16;3.08;;;2.88;;
77099;SDS011;66602;48.922;2.414;2023-04-08T14:15:41;3.58;;;3.00;;
77099;SDS011;66602;48.922;2.414;2023-04-08T14:18:07;3.17;;;2.78;;
77099;SDS011;66602;48.922;2.414;2023-04-08T14:20:32;3.40;;;3.20;;
77099;SDS011;66602;48.922;2.414;2023-04-08T14:22:59;3.58;;;3.38;;
77099;SDS011;66602;48.922;2.414;2023-04-08T14:25:25;2.97;;;2.85;;
77099;SDS011;66602;48.922;2.414;2023-04-08T14:27:50;3.05;;;2.85;;
77099;SDS011;66602;48.922;2.414;2023-04-08T14:30:16;3.28;;;3.08;;
77099;SDS011;66602;48.922;2.414;2023-04-08T14:32:42;4.15;;;2.90;;
77099;SDS011;66602;48.922;2.414;2023-04-08T14:35:08;2.53;;;2.33;;
77099;SDS011;66602;48.922;2.414;2023-04-08T14:37:33;2.80;;;2.60;;
77099;SDS011;66602;48.922;2.414;2023-04-08T14:40:01;3.40;;;3.20;;
77099;SDS011;66602;48.922;2.414;2023-04-08T14:42:26;3.75;;;3.00;;
77099;SDS011;66602;48.922;2.414;2023-04-08T14:44:52;4.22;;;3.28;;
77099;SDS011;66602;48.922;2.414;2023-04-08T14:47:17;3.47;;;3.28;;
77099;SDS011;66602;48.922;2.414;2023-04-08T14:49:43;6.10;;;3.35;;
77099;SDS011;66602;48.922;2.414;2023-04-08T14:52:08;3.33;;;3.13;;
77099;SDS011;66602;48.922;2.414;2023-04-08T14:54:34;4.15;;;3.75;;
77099;SDS011;66602;48.922;2.414;2023-04-08T14:57:00;3.92;;;3.63;;
77099;SDS011;66602;48.922;2.414;2023-04-08T14:59:26;4.40;;;4.05;;